Time;durP1;ratioP1;P1;durP2;ratioP2;P2;SDS_P1;SDS_P2;PMS_P1;PMS_P2;Temp;Humidity;BMP_temperature;BMP_pressure;BME280_temperature;BME280_humidity;BME280_pressure;Samples;Min_cycle;Max_cycle;Signal;HPM_P1;HPM_P2
2022/01/28 00:00:13;;;;;;;9.37;7.10;;;4.60;99.90;;;;;;5113680;28;20484;-58
2022/01/28 00:02:58;;;;;;;7.87;6.60;;;4.50;99.90;;;;;;5113854;28;21016;-58
2022/01/28 00:05:26;;;;;;;7.50;6.73;;;4.40;99.90;;;;;;5117913;28;20466;-58
2022/01/28 00:07:54;;;;;;;8.30;7.27;;;4.40;99.90;;;;;;5117746;28;20821;-58
2022/01/28 00:10:23;;;;;;;8.03;6.30;;;4.40;99.90;;;;;;5117910;28;20537;-58
2022/01/28 00:15:40;;;;;;;7.40;6.70;;;4.40;99.90;;;;;;5117657;28;20402;-58
2022/01/28 00:36:26;;;;;;;8.20;5.07;;;4.40;99.90;;;;;;5114539;28;20450;-58
2022/01/28 00:38:01;;;;;;;8.00;5.60;;;4.60;99.90;;;;;;5117509;28;20404;-58
2022/01/28 00:40:28;;;;;;;7.53;5.63;;;4.60;99.90;;;;;;5117218;28;20442;-58
2022/01/28 00:42:56;;;;;;;6.60;5.90;;;4.60;99.90;;;;;;5117320;28;20442;-58
2022/01/28 00:45:23;;;;;;;6.30;5.00;;;4.70;99.90;;;;;;5116891;28;20479;-58
2022/01/28 00:47:50;;;;;;;5.63;5.07;;;4.60;99.90;;;;;;5117216;28;20805;-58
2022/01/28 00:50:19;;;;;;;6.80;5.03;;;4.70;99.90;;;;;;5117120;28;20452;-58
2022/01/28 00:52:46;;;;;;;7.10;6.30;;;4.70;99.90;;;;;;5117040;28;20492;-58
2022/01/28 00:55:13;;;;;;;6.03;5.20;;;4.70;99.90;;;;;;5117001;28;20792;-58
2022/01/28 00:57:41;;;;;;;5.70;5.20;;;4.70;99.90;;;;;;5116762;28;20901;-58
2022/01/28 01:00:10;;;;;;;6.93;5.50;;;4.70;99.90;;;;;;5116974;28;20809;-58
2022/01/28 01:02:38;;;;;;;7.70;6.20;;;4.60;99.90;;;;;;5116799;28;20477;-59
2022/01/28 01:05:06;;;;;;;9.90;6.60;;;4.70;99.90;;;;;;5116483;28;20488;-58
2022/01/28 01:07:35;;;;;;;7.10;5.20;;;4.70;99.90;;;;;;5116495;28;20453;-58
2022/01/28 01:10:02;;;;;;;7.37;6.40;;;4.60;99.90;;;;;;5116512;28;20526;-58
2022/01/28 01:12:32;;;;;;;6.73;4.97;;;4.60;99.90;;;;;;5116312;28;20557;-58
2022/01/28 01:15:00;;;;;;;8.67;5.83;;;4.50;99.90;;;;;;5116067;28;20442;-58
2022/01/28 01:17:32;;;;;;;6.20;4.93;;;4.50;99.90;;;;;;5116264;28;20877;-58
2022/01/28 01:20:13;;;;;;;8.70;5.90;;;4.50;99.90;;;;;;5116569;28;20435;-58
2022/01/28 01:22:49;;;;;;;5.20;4.70;;;4.50;99.90;;;;;;5116163;28;20466;-58
2022/01/28 01:25:24;;;;;;;7.10;5.20;;;4.50;99.90;;;;;;5115934;28;20984;-58
2022/01/28 01:27:54;;;;;;;5.50;5.00;;;4.40;99.90;;;;;;5116137;28;20479;-58
2022/01/28 01:30:21;;;;;;;6.40;5.80;;;4.40;99.90;;;;;;5116462;28;20758;-59
2022/01/28 01:32:49;;;;;;;12.80;5.97;;;4.30;99.90;;;;;;5116009;28;20494;-59
2022/01/28 01:35:16;;;;;;;6.30;5.23;;;4.30;99.90;;;;;;5116321;28;20461;-59
2022/01/28 01:37:44;;;;;;;6.47;5.60;;;4.30;99.90;;;;;;5115978;28;20442;-59
2022/01/28 01:40:13;;;;;;;5.70;4.73;;;4.20;99.90;;;;;;5115866;28;20450;-58
2022/01/28 01:42:48;;;;;;;11.47;6.40;;;4.20;99.90;;;;;;5115796;28;20969;-58
2022/01/28 01:45:47;;;;;;;4.93;4.53;;;4.20;99.90;;;;;;5115749;28;20472;-58
2022/01/28 01:53:44;;;;;;;7.23;5.37;;;4.10;99.90;;;;;;5115820;28;20758;-59
2022/01/28 01:56:13;;;;;;;6.23;4.70;;;4.10;99.90;;;;;;5115933;28;20452;-59
2022/01/28 01:58:41;;;;;;;8.17;5.90;;;4.00;99.90;;;;;;5115841;28;20446;-58
2022/01/28 02:01:08;;;;;;;12.07;5.37;;;4.00;99.90;;;;;;5115705;28;20463;-58
2022/01/28 02:03:36;;;;;;;6.40;4.50;;;4.10;99.90;;;;;;5115749;28;20806;-58
2022/01/28 02:06:03;;;;;;;5.13;4.60;;;4.10;99.90;;;;;;5115283;28;20483;-58
2022/01/28 02:08:32;;;;;;;5.23;4.73;;;4.10;99.90;;;;;;5115345;28;20445;-59
2022/01/28 02:11:02;;;;;;;6.30;5.70;;;4.10;99.90;;;;;;5115512;28;20458;-58
2022/01/28 02:13:30;;;;;;;6.83;5.47;;;4.10;99.90;;;;;;5115237;28;20453;-59
2022/01/28 02:16:00;;;;;;;5.40;4.90;;;3.90;99.90;;;;;;5115474;28;20439;-59
2022/01/28 02:18:28;;;;;;;6.27;5.67;;;4.00;99.90;;;;;;5115452;28;20450;-59
2022/01/28 02:21:04;;;;;;;5.00;4.50;;;4.00;99.90;;;;;;5115304;28;20467;-59
2022/01/28 02:23:31;;;;;;;5.60;5.10;;;4.00;99.90;;;;;;5114961;28;20893;-58
2022/01/28 02:26:00;;;;;;;6.67;4.70;;;3.90;99.90;;;;;;5115001;28;20506;-58
2022/01/28 02:28:30;;;;;;;5.83;5.20;;;4.00;99.90;;;;;;5114358;28;20446;-58
2022/01/28 02:30:58;;;;;;;6.87;5.70;;;4.00;99.90;;;;;;5115403;28;20467;-58
2022/01/28 02:33:26;;;;;;;6.77;5.30;;;3.90;99.90;;;;;;5115169;28;20447;-58
2022/01/28 02:35:53;;;;;;;7.20;5.63;;;3.90;99.90;;;;;;5115161;28;20860;-59
2022/01/28 02:38:24;;;;;;;5.40;4.90;;;3.90;99.90;;;;;;5114774;28;20485;-59
2022/01/28 02:40:56;;;;;;;13.30;5.43;;;3.90;99.90;;;;;;5115034;28;20466;-59
2022/01/28 02:43:34;;;;;;;5.37;4.87;;;3.90;99.90;;;;;;5115010;28;20496;-58
2022/01/28 02:46:08;;;;;;;10.60;5.07;;;3.80;99.90;;;;;;5115366;28;20462;-58
2022/01/28 02:48:39;;;;;;;8.13;5.10;;;3.80;99.90;;;;;;5114644;28;20462;-58
2022/01/28 02:51:15;;;;;;;6.73;5.93;;;3.80;99.90;;;;;;5114507;28;20859;-58
2022/01/28 02:53:48;;;;;;;6.87;5.30;;;3.80;99.90;;;;;;5114503;28;20435;-59
2022/01/28 02:56:19;;;;;;;6.67;6.07;;;3.80;99.90;;;;;;5114866;28;20458;-58
2022/01/28 02:58:47;;;;;;;6.03;4.97;;;3.70;99.90;;;;;;5114421;28;20525;-58
2022/01/28 03:01:16;;;;;;;5.03;4.57;;;3.80;99.90;;;;;;5114647;28;20450;-58
2022/01/28 03:03:45;;;;;;;7.53;5.43;;;3.70;99.90;;;;;;5114412;28;20529;-58
2022/01/28 03:06:15;;;;;;;8.30;5.40;;;3.70;99.90;;;;;;5114210;28;20486;-58
2022/01/28 03:08:51;;;;;;;7.07;5.10;;;3.80;99.90;;;;;;5114572;28;20431;-58
2022/01/28 03:14:15;;;;;;;6.43;5.07;;;3.80;99.90;;;;;;5101050;28;20429;-59
2022/01/28 03:16:59;;;;;;;5.90;5.30;;;3.70;99.90;;;;;;5114132;28;20419;-59
2022/01/28 03:19:29;;;;;;;8.07;5.37;;;3.70;99.90;;;;;;5114121;28;20433;-58
2022/01/28 03:21:57;;;;;;;7.17;5.80;;;3.70;99.90;;;;;;5114344;28;20459;-58
2022/01/28 03:24:31;;;;;;;5.10;4.60;;;3.80;99.90;;;;;;5114236;28;20466;-58
2022/01/28 03:27:03;;;;;;;5.33;4.70;;;3.80;99.90;;;;;;5112736;28;21108;-58
2022/01/28 03:29:30;;;;;;;6.50;5.47;;;3.80;99.90;;;;;;5113973;28;20433;-58
2022/01/28 03:31:57;;;;;;;6.87;5.70;;;3.80;99.90;;;;;;5114185;28;20469;-59
2022/01/28 03:34:24;;;;;;;7.23;5.37;;;3.80;99.90;;;;;;5114227;28;20442;-59
2022/01/28 03:36:52;;;;;;;7.03;6.03;;;3.80;99.90;;;;;;5113896;28;20439;-59
2022/01/28 03:39:19;;;;;;;5.47;4.97;;;3.80;99.90;;;;;;5113581;28;20450;-58
2022/01/28 03:41:48;;;;;;;6.47;5.87;;;3.90;99.90;;;;;;5114083;28;20459;-59
2022/01/28 03:44:15;;;;;;;5.33;4.83;;;3.90;99.90;;;;;;5113812;28;20921;-59
2022/01/28 03:46:42;;;;;;;6.17;5.27;;;4.00;99.90;;;;;;5114012;28;20898;-59
2022/01/28 03:49:09;;;;;;;6.43;5.03;;;4.00;99.90;;;;;;5113759;28;20478;-59
2022/01/28 03:51:37;;;;;;;7.00;5.17;;;4.00;99.90;;;;;;5113737;28;20510;-59
2022/01/28 03:54:04;;;;;;;6.40;5.10;;;4.10;99.90;;;;;;5114022;28;20442;-59
2022/01/28 03:56:31;;;;;;;10.80;6.90;;;4.10;99.90;;;;;;5114045;28;20459;-59
2022/01/28 03:59:00;;;;;;;7.23;5.83;;;4.10;99.90;;;;;;5114004;28;20438;-58
2022/01/28 04:01:32;;;;;;;6.10;5.47;;;4.20;99.90;;;;;;5113573;28;20465;-58
2022/01/28 04:12:20;;;;;;;5.67;4.77;;;4.30;99.90;;;;;;5113721;28;20895;-59
2022/01/28 04:15:04;;;;;;;6.03;5.43;;;4.30;99.90;;;;;;5113821;28;20446;-58
2022/01/28 04:17:31;;;;;;;9.20;6.40;;;4.20;99.90;;;;;;5113474;28;20437;-58
2022/01/28 04:19:59;;;;;;;7.17;5.63;;;4.30;99.90;;;;;;5113722;28;20831;-59
2022/01/28 04:22:26;;;;;;;7.90;6.40;;;4.20;99.90;;;;;;5113349;28;20474;-58
2022/01/28 04:24:54;;;;;;;5.37;4.93;;;4.30;99.90;;;;;;5113384;28;20458;-58
2022/01/28 04:27:21;;;;;;;7.80;5.37;;;4.20;99.90;;;;;;5113366;28;20478;-59
2022/01/28 04:29:49;;;;;;;6.13;5.53;;;4.30;99.90;;;;;;5113422;28;20446;-59
2022/01/28 04:32:18;;;;;;;8.67;6.17;;;4.20;99.90;;;;;;5113297;28;20481;-59
2022/01/28 04:34:45;;;;;;;7.07;5.97;;;4.20;99.90;;;;;;5113645;28;20443;-59
2022/01/28 04:37:22;;;;;;;8.33;4.93;;;4.10;99.90;;;;;;5113617;28;20469;-58
2022/01/28 04:39:53;;;;;;;7.50;4.90;;;4.10;99.90;;;;;;5114157;28;20427;-58
2022/01/28 04:42:36;;;;;;;8.60;5.73;;;4.00;99.90;;;;;;5113266;28;20462;-58
2022/01/28 04:45:12;;;;;;;6.27;5.67;;;4.00;99.90;;;;;;5113189;28;20521;-58
2022/01/28 04:47:46;;;;;;;6.80;5.90;;;4.00;99.90;;;;;;5113204;28;20449;-59
2022/01/28 04:50:23;;;;;;;6.93;5.37;;;3.90;99.90;;;;;;5113816;28;20427;-59
2022/01/28 04:53:08;;;;;;;7.73;5.93;;;3.90;99.90;;;;;;5116750;28;20523;-58
2022/01/28 04:55:51;;;;;;;7.03;5.93;;;3.90;99.90;;;;;;5117099;28;20454;-58
2022/01/28 04:58:31;;;;;;;9.00;5.63;;;4.00;99.90;;;;;;5117081;28;20435;-59
2022/01/28 05:01:19;;;;;;;5.83;5.23;;;3.90;99.90;;;;;;5116680;28;20473;-59
2022/01/28 05:04:01;;;;;;;8.93;5.63;;;3.90;99.90;;;;;;5116671;28;20522;-58
2022/01/28 05:07:14;;;;;;;6.13;5.53;;;4.00;99.90;;;;;;5116901;28;20498;-59
2022/01/28 05:12:51;;;;;;;6.70;5.90;;;3.90;99.90;;;;;;5103060;28;20446;-59
2022/01/28 05:24:05;;;;;;;13.40;6.20;;;3.70;99.90;;;;;;5116426;28;20435;-58
2022/01/28 05:26:33;;;;;;;7.30;5.73;;;3.70;99.90;;;;;;5115844;28;20518;-59
2022/01/28 05:29:01;;;;;;;7.00;5.93;;;3.70;99.90;;;;;;5116079;28;20430;-59
2022/01/28 05:31:28;;;;;;;9.37;6.67;;;3.60;99.90;;;;;;5116270;28;20583;-59
2022/01/28 05:33:56;;;;;;;11.70;5.53;;;3.60;99.90;;;;;;5115964;28;20793;-59
2022/01/28 05:36:24;;;;;;;9.50;5.97;;;3.60;99.90;;;;;;5115964;28;20447;-58
2022/01/28 05:38:51;;;;;;;11.03;5.70;;;3.50;99.90;;;;;;5116203;28;20848;-58
2022/01/28 05:41:19;;;;;;;11.13;6.30;;;3.50;99.90;;;;;;5116097;28;20553;-59
2022/01/28 05:43:46;;;;;;;10.40;7.37;;;3.50;99.90;;;;;;5115718;28;20811;-58
2022/01/28 05:46:13;;;;;;;9.20;5.77;;;3.50;99.90;;;;;;5115986;28;20569;-58
2022/01/28 05:48:41;;;;;;;12.37;6.10;;;3.50;99.90;;;;;;5116017;28;20832;-59
2022/01/28 05:51:11;;;;;;;8.23;6.07;;;3.50;99.90;;;;;;5115534;28;20549;-58
2022/01/28 05:53:38;;;;;;;8.90;6.90;;;3.50;99.90;;;;;;5115558;28;20929;-59
2022/01/28 05:56:05;;;;;;;6.80;6.13;;;3.40;99.90;;;;;;5115809;28;20439;-59
2022/01/28 05:58:33;;;;;;;6.40;5.80;;;3.50;99.90;;;;;;5115729;28;20446;-59
2022/01/28 06:01:00;;;;;;;8.97;6.93;;;3.40;99.90;;;;;;5115183;28;20468;-58
2022/01/28 06:03:27;;;;;;;10.50;6.90;;;3.40;99.90;;;;;;5115713;28;20443;-58
2022/01/28 06:05:54;;;;;;;9.20;6.37;;;3.40;99.90;;;;;;5115635;28;20488;-58
2022/01/28 06:08:23;;;;;;;8.10;6.80;;;3.50;99.90;;;;;;5115306;28;20531;-59
2022/01/28 06:10:50;;;;;;;10.67;7.50;;;3.50;99.90;;;;;;5115125;28;20981;-59
2022/01/28 06:13:18;;;;;;;12.30;7.90;;;3.40;99.90;;;;;;5115485;28;20435;-59
2022/01/28 06:15:45;;;;;;;8.30;6.23;;;3.40;99.90;;;;;;5115111;28;20439;-58
2022/01/28 06:18:13;;;;;;;8.33;6.00;;;3.50;99.90;;;;;;5115025;28;20538;-59
2022/01/28 06:20:41;;;;;;;10.20;6.67;;;3.50;99.90;;;;;;5115346;28;20450;-59
2022/01/28 06:23:08;;;;;;;10.83;6.40;;;3.50;99.90;;;;;;5115176;28;20442;-59
2022/01/28 06:25:39;;;;;;;10.70;6.83;;;3.50;99.90;;;;;;5114738;28;20580;-59
2022/01/28 06:28:06;;;;;;;8.23;6.27;;;3.50;99.90;;;;;;5115237;28;20454;-58
2022/01/28 06:30:33;;;;;;;8.93;6.13;;;3.50;99.90;;;;;;5114910;28;20537;-58
2022/01/28 06:33:00;;;;;;;8.53;6.70;;;3.50;99.90;;;;;;5114807;28;20441;-58
2022/01/28 06:35:28;;;;;;;12.13;6.63;;;3.60;99.90;;;;;;5114875;28;20442;-58
2022/01/28 06:37:55;;;;;;;8.00;6.13;;;3.60;99.90;;;;;;5114867;28;20507;-59
2022/01/28 06:40:22;;;;;;;8.20;5.67;;;3.60;99.90;;;;;;5114746;28;20453;-58
2022/01/28 06:42:51;;;;;;;7.03;6.17;;;3.60;99.90;;;;;;5114712;28;20549;-58
2022/01/28 06:45:18;;;;;;;7.47;5.53;;;3.60;99.90;;;;;;5114861;28;20822;-58
2022/01/28 06:47:46;;;;;;;7.10;6.03;;;3.60;99.90;;;;;;5114344;28;20992;-59
2022/01/28 06:50:13;;;;;;;8.17;7.33;;;3.60;99.90;;;;;;5114708;28;20483;-59
2022/01/28 06:52:41;;;;;;;7.90;6.50;;;3.60;99.90;;;;;;5114667;28;20470;-58
2022/01/28 06:55:10;;;;;;;22.63;7.70;;;3.50;99.90;;;;;;5113903;28;20929;-58
2022/01/28 06:57:37;;;;;;;8.83;7.20;;;3.50;99.90;;;;;;5114299;28;20430;-58
2022/01/28 07:00:09;;;;;;;10.47;6.90;;;3.50;99.90;;;;;;5114561;28;20446;-58
2022/01/28 07:02:36;;;;;;;8.83;7.53;;;3.40;99.90;;;;;;5114456;28;20462;-58
2022/01/28 07:05:05;;;;;;;7.37;6.60;;;3.50;99.90;;;;;;5114484;28;20862;-58
2022/01/28 07:07:33;;;;;;;11.43;7.60;;;3.50;99.90;;;;;;5114366;28;20474;-58
2022/01/28 07:10:01;;;;;;;9.20;6.57;;;3.40;99.90;;;;;;5114401;28;20470;-58
2022/01/28 07:12:28;;;;;;;10.50;7.73;;;3.40;99.90;;;;;;5114086;28;20473;-58
2022/01/28 07:14:55;;;;;;;11.00;7.27;;;3.40;99.90;;;;;;5113655;28;20537;-58
2022/01/28 07:17:24;;;;;;;8.27;6.73;;;3.40;99.90;;;;;;5114122;28;20791;-59
2022/01/28 07:19:51;;;;;;;8.67;6.90;;;3.40;99.90;;;;;;5113880;28;20545;-58
2022/01/28 07:22:18;;;;;;;17.60;8.53;;;3.30;99.90;;;;;;5113724;28;20925;-57
2022/01/28 07:24:45;;;;;;;9.87;7.60;;;3.30;99.90;;;;;;5113699;28;20438;-57
2022/01/28 07:27:19;;;;;;;12.33;8.47;;;3.30;99.90;;;;;;5113613;28;20589;-57
2022/01/28 07:29:47;;;;;;;12.37;7.53;;;3.30;99.90;;;;;;5113837;28;20437;-58
2022/01/28 07:32:14;;;;;;;11.00;8.27;;;3.30;99.90;;;;;;5113743;28;20797;-58
2022/01/28 07:34:43;;;;;;;10.63;7.80;;;3.30;99.90;;;;;;5113921;28;20837;-58
2022/01/28 07:37:11;;;;;;;10.70;7.70;;;3.40;99.90;;;;;;5113965;28;20443;-58
2022/01/28 07:39:38;;;;;;;12.30;8.03;;;3.40;99.90;;;;;;5113526;28;20937;-58
2022/01/28 07:42:06;;;;;;;10.87;7.53;;;3.40;99.90;;;;;;5113456;28;20462;-58
2022/01/28 07:44:33;;;;;;;10.17;7.07;;;3.50;99.90;;;;;;5114178;28;20529;-58
2022/01/28 07:47:01;;;;;;;12.97;7.50;;;3.50;99.90;;;;;;5113774;28;20518;-58
2022/01/28 07:49:28;;;;;;;9.13;7.77;;;3.60;99.90;;;;;;5114428;28;20446;-58
2022/01/28 07:51:56;;;;;;;9.20;7.47;;;3.70;99.90;;;;;;5113784;28;20817;-58
2022/01/28 07:54:23;;;;;;;9.23;6.10;;;3.80;99.90;;;;;;5113776;28;20446;-58
2022/01/28 07:56:53;;;;;;;9.83;7.00;;;3.90;99.90;;;;;;5113981;28;20490;-58
2022/01/28 07:59:21;;;;;;;7.10;6.40;;;3.90;99.90;;;;;;5113554;28;20450;-58
2022/01/28 08:01:48;;;;;;;9.23;6.60;;;3.90;99.90;;;;;;5113264;28;20968;-58
2022/01/28 08:04:16;;;;;;;9.70;7.40;;;4.00;99.90;;;;;;5113524;28;20477;-58
2022/01/28 08:06:43;;;;;;;10.47;7.13;;;4.00;99.90;;;;;;5113392;28;20479;-58
2022/01/28 08:09:11;;;;;;;12.60;7.00;;;4.00;99.90;;;;;;5113576;28;20449;-58
2022/01/28 08:11:39;;;;;;;6.70;5.00;;;4.20;99.90;;;;;;5113150;28;20488;-58
2022/01/28 08:14:06;;;;;;;8.73;6.70;;;4.10;99.90;;;;;;5113349;28;20453;-58
2022/01/28 08:16:35;;;;;;;7.47;5.90;;;4.10;99.90;;;;;;5114528;28;20759;-58
2022/01/28 08:19:02;;;;;;;7.87;6.33;;;4.20;99.90;;;;;;5113186;28;20450;-58
2022/01/28 08:21:29;;;;;;;10.43;7.03;;;4.30;99.90;;;;;;5112953;28;20557;-58
2022/01/28 08:23:56;;;;;;;5.67;5.13;;;4.20;99.90;;;;;;5113606;28;20438;-57
2022/01/28 08:26:25;;;;;;;12.17;6.53;;;4.20;99.90;;;;;;5115473;28;20565;-58
2022/01/28 08:28:52;;;;;;;8.30;5.37;;;4.20;99.90;;;;;;5117126;28;20452;-58
2022/01/28 08:31:19;;;;;;;6.57;5.70;;;4.30;99.90;;;;;;5116990;28;20474;-58
2022/01/28 08:33:46;;;;;;;6.30;5.70;;;4.20;99.90;;;;;;5117354;28;20800;-58
2022/01/28 08:36:13;;;;;;;7.37;5.73;;;4.30;99.90;;;;;;5117301;28;20978;-58
2022/01/28 08:38:46;;;;;;;6.57;5.03;;;;;;;;;;5116699;28;20477;-58
2022/01/28 08:41:13;;;;;;;7.93;5.97;;;4.60;99.90;;;;;;5116793;28;20960;-58
2022/01/28 08:43:43;;;;;;;7.30;6.00;;;4.60;99.90;;;;;;5117606;28;20777;-58
2022/01/28 08:46:10;;;;;;;8.70;6.47;;;4.60;99.90;;;;;;5117231;28;20541;-58
2022/01/28 08:48:38;;;;;;;7.23;5.20;;;4.70;99.90;;;;;;5116994;28;20434;-59
2022/01/28 08:51:05;;;;;;;9.83;5.13;;;4.70;99.90;;;;;;5116554;28;20530;-59
2022/01/28 08:53:33;;;;;;;7.20;5.77;;;4.80;99.90;;;;;;5116901;28;20521;-58
2022/01/28 08:56:00;;;;;;;7.03;5.33;;;4.90;99.90;;;;;;5116672;28;20541;-58
2022/01/28 08:58:27;;;;;;;8.53;6.27;;;5.00;99.90;;;;;;5116447;28;20978;-58
2022/01/28 09:00:56;;;;;;;6.77;5.07;;;5.00;99.90;;;;;;5116425;28;20545;-58
2022/01/28 09:03:23;;;;;;;7.20;5.60;;;5.00;99.90;;;;;;5117106;28;20529;-58
2022/01/28 09:05:51;;;;;;;7.70;4.37;;;5.00;99.90;;;;;;5116736;28;20525;-58
2022/01/28 09:08:18;;;;;;;6.47;5.17;;;5.00;99.90;;;;;;5116592;28;20486;-58
2022/01/28 09:10:56;;;;;;;6.47;4.63;;;5.20;99.90;;;;;;5116190;28;20534;-59
2022/01/28 09:13:24;;;;;;;6.50;5.03;;;5.10;99.90;;;;;;5116165;28;20434;-58
2022/01/28 09:15:54;;;;;;;9.53;4.83;;;5.20;99.90;;;;;;5116342;28;20473;-59
2022/01/28 09:18:23;;;;;;;5.90;5.10;;;5.20;99.90;;;;;;5116089;28;20442;-58
2022/01/28 09:20:51;;;;;;;6.77;4.87;;;5.10;99.90;;;;;;5116010;28;20473;-58
2022/01/28 09:23:19;;;;;;;8.70;5.23;;;5.20;99.90;;;;;;5115908;28;20453;-58
2022/01/28 09:25:46;;;;;;;8.60;4.60;;;5.30;99.90;;;;;;5115659;28;20482;-58
2022/01/28 09:28:13;;;;;;;6.30;5.70;;;5.40;99.90;;;;;;5115959;28;20887;-58
2022/01/28 09:30:41;;;;;;;8.20;5.17;;;5.50;99.90;;;;;;5115806;28;20529;-59
2022/01/28 09:33:08;;;;;;;5.23;4.30;;;5.50;99.90;;;;;;5116095;28;20443;-59
2022/01/28 09:35:37;;;;;;;7.03;4.07;;;5.50;99.90;;;;;;5115660;28;20447;-58
2022/01/28 09:38:05;;;;;;;4.80;4.20;;;5.60;99.90;;;;;;5115880;28;20452;-58
2022/01/28 09:40:33;;;;;;;5.67;4.10;;;5.80;99.90;;;;;;5115817;28;20442;-59
2022/01/28 09:43:02;;;;;;;9.63;4.20;;;6.00;99.90;;;;;;5115863;28;20473;-58
2022/01/28 09:45:30;;;;;;;6.70;4.00;;;6.10;99.90;;;;;;5115829;28;20838;-59
2022/01/28 09:47:57;;;;;;;6.23;4.10;;;6.20;99.90;;;;;;5115386;28;20500;-59
2022/01/28 09:50:27;;;;;;;4.37;3.80;;;6.20;99.90;;;;;;5115584;28;20453;-58
2022/01/28 09:52:56;;;;;;;5.77;3.30;;;6.20;99.90;;;;;;5115393;28;20474;-58
2022/01/28 09:55:24;;;;;;;5.70;3.37;;;6.20;99.90;;;;;;5115546;28;20509;-59
2022/01/28 09:57:53;;;;;;;4.77;3.60;;;6.30;99.90;;;;;;5115580;28;20445;-59
2022/01/28 10:00:23;;;;;;;4.80;3.53;;;6.20;99.90;;;;;;5115522;28;20447;-58
2022/01/28 10:02:55;;;;;;;6.13;3.17;;;6.20;99.90;;;;;;5115504;28;20462;-59
2022/01/28 10:05:26;;;;;;;6.20;3.37;;;6.30;99.90;;;;;;5112650;28;20542;-59
2022/01/28 10:08:06;;;;;;;9.37;3.90;;;;;;;;;;5107839;28;20927;-59
2022/01/28 10:10:56;;;;;;;5.23;3.23;;;6.50;99.90;;;;;;5114381;28;20442;-58
2022/01/28 10:13:30;;;;;;;4.67;3.20;;;6.60;99.90;;;;;;5109755;28;20471;-59
2022/01/28 10:16:00;;;;;;;12.30;3.17;;;6.60;99.90;;;;;;5114562;28;20961;-59
2022/01/28 10:18:46;;;;;;;5.83;3.20;;;6.60;99.90;;;;;;5113821;28;20438;-59
2022/01/28 10:21:25;;;;;;;7.27;2.53;;;6.60;99.90;;;;;;5111653;28;20454;-59
2022/01/28 10:24:03;;;;;;;4.07;3.00;;;6.80;99.90;;;;;;5113799;28;20427;-59
2022/01/28 10:26:32;;;;;;;5.97;3.80;;;6.70;99.90;;;;;;5113108;28;20558;-59
2022/01/28 10:29:00;;;;;;;4.90;2.90;;;6.70;99.90;;;;;;5112129;28;20478;-59
2022/01/28 10:31:41;;;;;;;3.50;3.13;;;6.60;99.90;;;;;;5113323;28;20469;-59
2022/01/28 10:34:17;;;;;;;4.50;2.53;;;6.60;99.90;;;;;;5113617;28;20482;-59
2022/01/28 10:36:46;;;;;;;6.03;2.63;;;6.60;99.90;;;;;;5111658;28;20450;-59
2022/01/28 10:39:17;;;;;;;4.67;3.43;;;6.80;99.90;;;;;;5113635;28;20963;-59
2022/01/28 10:41:57;;;;;;;6.20;3.37;;;6.90;99.90;;;;;;5114054;28;20850;-59
2022/01/28 10:44:26;;;;;;;4.80;3.27;;;7.10;99.90;;;;;;5112285;28;20431;-59
2022/01/28 10:46:57;;;;;;;4.33;3.33;;;7.30;99.90;;;;;;5113422;28;20465;-59
2022/01/28 10:49:34;;;;;;;4.77;3.10;;;7.50;99.90;;;;;;5113339;28;20485;-59
2022/01/28 10:52:08;;;;;;;6.40;2.70;;;7.50;99.90;;;;;;5112244;28;20466;-59
2022/01/28 10:54:37;;;;;;;5.70;2.43;;;7.30;99.90;;;;;;5113820;28;20406;-57
2022/01/28 10:57:10;;;;;;;7.47;6.00;;;7.40;99.90;;;;;;5113895;28;20476;-59
2022/01/28 10:59:39;;;;;;;4.10;3.00;;;7.60;99.90;;;;;;5112121;28;20455;-59
2022/01/28 11:02:07;;;;;;;8.70;3.10;;;7.80;99.90;;;;;;5110917;28;20546;-59
2022/01/28 11:04:34;;;;;;;5.80;2.70;;;7.50;99.90;;;;;;5109993;28;20450;-59
2022/01/28 11:07:04;;;;;;;2.40;2.20;;;7.50;99.90;;;;;;5113639;28;20443;-59
2022/01/28 11:09:31;;;;;;;5.10;2.50;;;7.60;99.90;;;;;;5113695;28;20481;-59
2022/01/28 11:12:01;;;;;;;11.53;2.90;;;7.30;99.90;;;;;;5111742;28;20473;-59
2022/01/28 11:14:28;;;;;;;5.30;2.73;;;7.20;99.90;;;;;;5113510;28;20453;-59
2022/01/28 11:16:56;;;;;;;6.70;2.80;;;7.10;99.90;;;;;;5113286;28;20781;-59
2022/01/28 11:19:27;;;;;;;4.00;2.70;;;7.00;99.90;;;;;;5109459;28;20458;-59
2022/01/28 11:22:09;;;;;;;5.90;3.37;;;6.90;99.90;;;;;;5113520;28;20520;-59
2022/01/28 11:25:27;;;;;;;7.33;2.70;;;7.10;99.90;;;;;;5113107;28;20462;-58
2022/01/28 11:27:56;;;;;;;4.30;2.47;;;6.80;99.90;;;;;;5030199;28;20476;-59
2022/01/28 11:30:26;;;;;;;3.20;2.90;;;7.60;99.90;;;;;;5106772;28;20455;-59
2022/01/28 11:33:01;;;;;;;3.37;2.70;;;8.10;99.90;;;;;;5111387;28;20683;-60
2022/01/28 11:35:36;;;;;;;2.83;2.37;;;8.20;99.90;;;;;;5113476;28;20434;-59
2022/01/28 11:38:37;;;;;;;3.37;2.40;;;8.10;99.90;;;;;;5113264;28;20426;-59
2022/01/28 11:41:09;;;;;;;3.60;2.80;;;7.90;99.90;;;;;;5111114;28;20470;-59
2022/01/28 11:43:47;;;;;;;6.47;3.20;;;7.50;99.90;;;;;;5113037;28;20423;-59
2022/01/28 11:46:21;;;;;;;3.10;2.57;;;7.10;99.90;;;;;;5112638;28;20411;-59
2022/01/28 11:49:19;;;;;;;2.67;2.30;;;6.90;99.90;;;;;;5111080;28;20503;-59
2022/01/28 11:51:46;;;;;;;9.50;2.40;;;7.30;99.90;;;;;;5112720;28;20478;-59
2022/01/28 11:54:15;;;;;;;7.03;3.07;;;7.30;99.90;;;;;;5112629;28;20503;-59
2022/01/28 11:57:18;;;;;;;6.20;3.10;;;7.30;99.90;;;;;;5111490;28;20493;-59
2022/01/28 11:59:47;;;;;;;5.50;3.13;;;7.10;99.90;;;;;;5114546;28;20491;-60
2022/01/28 12:02:17;;;;;;;4.20;2.93;;;7.00;99.90;;;;;;5115475;28;20465;-59
2022/01/28 12:04:45;;;;;;;6.13;2.87;;;7.10;99.90;;;;;;5116873;28;20438;-59
2022/01/28 12:07:15;;;;;;;5.10;2.70;;;7.20;99.90;;;;;;5115984;28;20463;-59
2022/01/28 12:09:45;;;;;;;3.43;2.40;;;7.00;99.90;;;;;;5114336;28;20820;-59
2022/01/28 12:12:14;;;;;;;6.63;2.73;;;6.60;99.90;;;;;;5116677;28;20478;-59
2022/01/28 12:15:09;;;;;;;5.73;3.07;;;6.80;99.90;;;;;;5116080;28;20461;-59
2022/01/28 12:17:52;;;;;;;12.27;3.00;;;7.20;99.90;;;;;;5114524;28;20944;-59
2022/01/28 12:20:42;;;;;;;5.83;2.80;;;7.40;99.90;;;;;;5112581;28;20566;-59
2022/01/28 12:23:37;;;;;;;4.83;3.30;;;7.10;99.90;;;;;;5116168;28;20897;-59
2022/01/28 12:26:06;;;;;;;3.80;2.47;;;7.40;99.90;;;;;;5114436;28;20841;-59
2022/01/28 12:28:50;;;;;;;6.23;3.40;;;8.20;99.90;;;;;;5116247;28;20493;-59
2022/01/28 12:31:27;;;;;;;7.70;3.10;;;8.50;99.90;;;;;;5097589;28;20471;-58
2022/01/28 12:33:56;;;;;;;6.07;2.70;;;8.70;99.90;;;;;;5094081;28;20728;-59
2022/01/28 12:36:25;;;;;;;5.30;3.10;;;8.40;99.90;;;;;;5094422;28;20538;-59
2022/01/28 12:41:49;;;;;;;4.88;3.40;;;8.80;99.90;;;;;;5114381;28;20468;-59
2022/01/28 12:44:18;;;;;;;9.60;4.70;;;9.00;99.90;;;;;;5102557;28;20667;-61
2022/01/28 12:46:54;;;;;;;13.20;4.30;;;8.70;99.90;;;;;;5101637;28;20439;-56
2022/01/28 12:49:31;;;;;;;7.13;3.40;;;8.60;99.90;;;;;;5098723;28;20530;-50
2022/01/28 12:52:01;;;;;;;5.40;4.60;;;8.20;99.90;;;;;;5100067;28;20462;-55
2022/01/28 12:54:36;;;;;;;8.53;3.90;;;7.80;99.90;;;;;;5097883;28;20459;-57
2022/01/28 12:57:05;;;;;;;6.40;3.77;;;7.70;99.90;;;;;;5097482;28;20949;-55
2022/01/28 12:59:33;;;;;;;5.30;4.03;;;7.50;99.90;;;;;;5096796;28;20512;-59
2022/01/28 13:02:05;;;;;;;9.93;4.20;;;7.20;99.90;;;;;;5096922;28;20554;-60
2022/01/28 13:04:52;;;;;;;10.97;4.47;;;7.20;99.90;;;;;;5102417;28;20530;-59
2022/01/28 13:10:06;;;;;;;7.13;4.20;;;7.00;99.90;;;;;;5096828;28;20433;-58
2022/01/28 13:12:33;;;;;;;6.60;4.50;;;7.40;99.90;;;;;;5099834;28;20839;-56
2022/01/28 13:15:12;;;;;;;5.80;4.30;;;7.60;99.90;;;;;;5099182;28;20990;-56
2022/01/28 13:17:42;;;;;;;6.90;4.73;;;7.60;99.90;;;;;;5097639;28;20458;-59
2022/01/28 13:20:11;;;;;;;6.93;4.53;;;7.60;99.90;;;;;;5097023;28;20501;-58
2022/01/28 13:22:39;;;;;;;7.90;5.00;;;7.70;99.90;;;;;;5099117;28;20478;-56
2022/01/28 13:25:18;;;;;;;10.10;6.27;;;7.70;99.90;;;;;;5099402;28;20293;-53
2022/01/28 13:27:47;;;;;;;9.07;6.07;;;7.40;99.90;;;;;;5096421;28;20813;-50
2022/01/28 13:30:15;;;;;;;8.27;5.43;;;7.50;99.90;;;;;;5101779;28;20501;-60
2022/01/28 13:32:47;;;;;;;13.13;6.00;;;7.30;99.90;;;;;;5097096;28;20871;-58
2022/01/28 13:35:16;;;;;;;8.83;6.30;;;7.40;99.90;;;;;;5102075;28;20446;-58
2022/01/28 13:37:45;;;;;;;10.00;5.60;;;7.40;99.90;;;;;;5098736;28;20451;-56
2022/01/28 13:40:29;;;;;;;9.30;5.43;;;7.20;99.90;;;;;;5098876;28;20193;-60
2022/01/28 13:42:57;;;;;;;9.80;5.40;;;7.20;99.90;;;;;;5097859;28;20482;-56
2022/01/28 13:45:31;;;;;;;6.10;5.40;;;7.20;99.90;;;;;;5093689;28;20444;-57
2022/01/28 13:48:01;;;;;;;7.47;5.23;;;7.10;99.90;;;;;;5095294;28;20442;-56
2022/01/28 13:50:31;;;;;;;9.70;5.67;;;6.90;99.90;;;;;;5097671;28;20499;-49
2022/01/28 13:55:52;;;;;;;8.10;5.93;;;6.90;99.90;;;;;;5082294;28;20832;-50
2022/01/28 13:58:20;;;;;;;8.35;6.00;;;7.00;99.90;;;;;;5103125;28;20542;-56
2022/01/28 14:00:49;;;;;;;6.87;5.63;;;6.70;99.90;;;;;;5099607;28;20222;-58
2022/01/28 14:03:19;;;;;;;6.90;6.20;;;6.70;99.90;;;;;;5094750;28;20447;-53
2022/01/28 14:05:54;;;;;;;8.27;6.10;;;6.50;99.90;;;;;;5093595;28;21064;-52
2022/01/28 14:08:50;;;;;;;8.73;5.77;;;6.90;99.90;;;;;;5094151;28;21025;-55
2022/01/28 14:11:26;;;;;;;9.83;6.30;;;6.70;99.90;;;;;;5075584;28;20561;-52